Time;durP1;ratioP1;P1;durP2;ratioP2;P2;SDS_P1;SDS_P2;PMS_P1;PMS_P2;Temp;Humidity;BMP_temperature;BMP_pressure;BME280_temperature;BME280_humidity;BME280_pressure;Samples;Min_cycle;Max_cycle;Signal;HPM_P1;HPM_P2
2022/03/03 00:01:57;;;;;;;59.85;31.27;;;1.90;99.90;;;;;;5075920;28;20051;-89
2022/03/03 00:04:23;;;;;;;63.45;34.03;;;1.80;99.90;;;;;;5070136;28;20052;-90
2022/03/03 00:06:48;;;;;;;63.97;31.05;;;1.90;99.90;;;;;;5074406;28;20049;-89
2022/03/03 00:09:14;;;;;;;59.88;30.77;;;1.80;99.90;;;;;;5065240;28;20056;-89
2022/03/03 00:11:39;;;;;;;60.10;30.48;;;1.80;99.90;;;;;;5049960;28;20048;-90
2022/03/03 00:14:05;;;;;;;62.35;31.63;;;1.80;99.90;;;;;;5070251;28;20045;-90
2022/03/03 00:16:31;;;;;;;57.38;29.65;;;1.80;99.90;;;;;;5075379;28;20131;-90
2022/03/03 00:18:57;;;;;;;63.33;31.38;;;1.80;99.90;;;;;;5052130;28;20040;-90
2022/03/03 00:21:22;;;;;;;60.25;31.02;;;1.70;99.90;;;;;;5058849;28;20036;-89
2022/03/03 00:23:48;;;;;;;59.05;31.50;;;1.70;99.90;;;;;;5059676;28;20044;-90
2022/03/03 00:26:14;;;;;;;64.57;30.60;;;1.70;99.90;;;;;;5061904;28;20056;-90
2022/03/03 00:28:39;;;;;;;57.53;30.63;;;1.70;99.90;;;;;;5055385;28;20040;-89
2022/03/03 00:31:05;;;;;;;57.75;30.02;;;1.60;99.90;;;;;;5058162;28;20403;-90
2022/03/03 00:33:31;;;;;;;58.65;30.77;;;1.60;99.90;;;;;;5071898;28;20420;-90
2022/03/03 00:35:56;;;;;;;58.90;28.63;;;1.60;99.90;;;;;;5057941;28;20073;-89
2022/03/03 00:38:22;;;;;;;55.00;29.65;;;1.60;99.90;;;;;;5065595;28;20048;-90
2022/03/03 00:40:48;;;;;;;60.25;31.35;;;1.50;99.90;;;;;;5072175;28;20580;-89
2022/03/03 00:43:13;;;;;;;58.78;29.63;;;1.50;99.90;;;;;;5073353;28;20097;-89
2022/03/03 00:45:39;;;;;;;57.17;29.90;;;1.50;99.90;;;;;;5077439;28;20035;-90
2022/03/03 00:48:05;;;;;;;50.70;27.40;;;1.50;99.90;;;;;;5055933;28;20166;-91
2022/03/03 00:50:31;;;;;;;54.13;29.63;;;1.50;99.90;;;;;;5058407;28;20525;-90
2022/03/03 00:52:57;;;;;;;50.45;28.55;;;1.40;99.90;;;;;;5074197;28;20123;-90
2022/03/03 00:55:23;;;;;;;54.70;29.55;;;1.40;99.90;;;;;;5074568;28;20035;-90
2022/03/03 00:57:49;;;;;;;51.58;29.52;;;1.40;99.90;;;;;;5071066;28;20113;-90
2022/03/03 01:00:15;;;;;;;53.35;28.40;;;1.30;99.90;;;;;;5068323;28;20052;-91
2022/03/03 01:02:41;;;;;;;54.17;29.33;;;1.30;99.90;;;;;;5056015;28;20407;-90
2022/03/03 01:05:08;;;;;;;51.92;28.15;;;1.30;99.90;;;;;;5052253;28;20036;-90
2022/03/03 01:07:34;;;;;;;53.85;28.40;;;1.20;99.90;;;;;;5070283;28;20046;-91
2022/03/03 01:10:00;;;;;;;50.42;27.08;;;1.20;99.90;;;;;;5051429;28;20075;-91
2022/03/03 01:12:25;;;;;;;47.63;25.42;;;1.10;99.90;;;;;;5067738;28;20071;-90
2022/03/03 01:14:51;;;;;;;57.58;28.80;;;1.00;99.90;;;;;;5068482;28;20493;-90
2022/03/03 01:17:17;;;;;;;52.30;26.60;;;0.90;99.90;;;;;;5061061;28;20399;-90
2022/03/03 01:19:43;;;;;;;53.55;27.70;;;0.80;99.90;;;;;;5054401;28;20047;-90
2022/03/03 01:22:09;;;;;;;50.60;26.70;;;0.80;99.90;;;;;;5062636;28;20447;-90
2022/03/03 01:24:35;;;;;;;47.72;26.65;;;0.90;99.90;;;;;;5067742;28;20052;-90
2022/03/03 01:27:01;;;;;;;48.95;26.83;;;0.70;99.90;;;;;;5077570;28;20055;-90
2022/03/03 01:29:27;;;;;;;51.88;29.10;;;0.70;99.90;;;;;;5062159;28;20032;-90
2022/03/03 01:31:53;;;;;;;47.40;26.55;;;0.60;99.90;;;;;;5060434;28;20581;-90
2022/03/03 01:34:18;;;;;;;52.67;27.17;;;0.60;99.90;;;;;;5073643;28;20200;-91
2022/03/03 01:36:44;;;;;;;52.33;26.42;;;0.50;99.90;;;;;;5072230;28;20052;-90
2022/03/03 01:39:10;;;;;;;45.60;23.95;;;0.50;99.90;;;;;;5056799;28;20650;-90
2022/03/03 01:41:37;;;;;;;49.05;26.88;;;0.40;99.90;;;;;;5077246;28;20040;-90
2022/03/03 01:44:03;;;;;;;48.20;25.13;;;0.40;99.90;;;;;;5058623;28;20097;-90
2022/03/03 01:46:30;;;;;;;51.38;28.73;;;0.30;99.90;;;;;;5062256;28;20047;-90
2022/03/03 01:48:56;;;;;;;51.25;27.40;;;0.30;99.90;;;;;;5057677;28;20777;-89
2022/03/03 01:51:21;;;;;;;53.13;26.35;;;0.30;99.90;;;;;;5056654;28;20494;-89
2022/03/03 01:53:47;;;;;;;51.67;28.15;;;0.30;99.90;;;;;;5078646;28;20033;-89
2022/03/03 01:56:13;;;;;;;54.42;29.73;;;0.30;99.90;;;;;;5063211;28;20145;-89
2022/03/03 01:58:40;;;;;;;53.60;26.15;;;0.30;99.90;;;;;;5071223;28;20033;-89
2022/03/03 02:01:06;;;;;;;54.20;28.05;;;0.30;99.90;;;;;;5076143;28;20096;-89
2022/03/03 02:03:31;;;;;;;51.13;25.65;;;0.30;99.90;;;;;;5072710;28;20075;-89
2022/03/03 02:05:58;;;;;;;55.33;26.85;;;0.20;99.90;;;;;;5076195;28;20040;-89
2022/03/03 02:08:24;;;;;;;51.45;25.48;;;0.20;99.90;;;;;;5060402;28;20052;-89
2022/03/03 02:10:53;;;;;;;51.53;27.00;;;0.10;99.90;;;;;;5058672;28;20048;-89
2022/03/03 02:13:19;;;;;;;49.75;26.05;;;0.10;99.90;;;;;;5054349;28;20044;-89
2022/03/03 02:15:53;;;;;;;49.75;25.83;;;0.00;99.90;;;;;;5060331;28;20040;-89
2022/03/03 02:18:19;;;;;;;52.92;28.60;;;0.00;99.90;;;;;;5059554;28;20043;-89
2022/03/03 02:20:45;;;;;;;51.70;27.33;;;0.00;99.90;;;;;;5074857;28;20443;-90
2022/03/03 02:23:10;;;;;;;57.40;28.73;;;0.00;99.90;;;;;;5061655;28;20044;-90
2022/03/03 02:25:36;;;;;;;52.13;27.25;;;0.00;99.90;;;;;;5080070;28;20040;-90
2022/03/03 02:28:02;;;;;;;48.65;27.20;;;0.00;99.90;;;;;;5059668;28;20045;-90
2022/03/03 02:30:28;;;;;;;51.50;28.85;;;0.00;99.90;;;;;;5059407;28;20068;-90
2022/03/03 02:32:53;;;;;;;56.25;29.02;;;0.00;99.90;;;;;;5059970;28;20051;-90
2022/03/03 02:35:20;;;;;;;54.80;28.35;;;0.00;99.90;;;;;;5061075;28;20330;-90
2022/03/03 02:37:46;;;;;;;55.08;28.45;;;0.00;99.90;;;;;;5064039;28;20048;-90
2022/03/03 02:40:22;;;;;;;49.92;25.83;;;0.00;99.90;;;;;;5080404;28;20035;-90
2022/03/03 02:42:53;;;;;;;49.83;26.67;;;-0.10;99.90;;;;;;5057492;28;20474;-91
2022/03/03 02:45:20;;;;;;;51.78;27.80;;;-0.10;99.90;;;;;;5076721;28;20126;-91
2022/03/03 02:47:47;;;;;;;54.05;28.52;;;-0.20;99.90;;;;;;5077907;28;20048;-91
2022/03/03 02:50:16;;;;;;;51.17;27.92;;;-0.20;99.90;;;;;;5054259;28;20080;-90
2022/03/03 02:52:42;;;;;;;50.10;26.88;;;-0.20;99.90;;;;;;5062704;28;20044;-92
2022/03/03 02:55:09;;;;;;;55.28;28.75;;;-0.20;99.90;;;;;;5055467;28;20044;-91
2022/03/03 02:57:53;;;;;;;54.15;28.25;;;-0.20;99.90;;;;;;5081061;28;20127;-90
2022/03/03 03:00:20;;;;;;;49.38;26.92;;;-0.20;99.90;;;;;;5074208;28;20060;-91
2022/03/03 03:02:46;;;;;;;51.33;27.70;;;-0.20;99.90;;;;;;5063239;28;20086;-91
2022/03/03 03:05:11;;;;;;;53.25;28.85;;;-0.30;99.90;;;;;;5055719;28;20075;-91
2022/03/03 03:07:37;;;;;;;51.75;28.40;;;-0.20;99.90;;;;;;5060228;28;20510;-91
2022/03/03 03:10:06;;;;;;;51.97;28.15;;;-0.20;99.90;;;;;;5059948;28;20043;-91
2022/03/03 03:12:32;;;;;;;53.20;27.20;;;-0.30;99.90;;;;;;5085093;28;20051;-91
2022/03/03 03:14:58;;;;;;;51.40;28.27;;;-0.20;99.90;;;;;;5062304;28;20050;-91
2022/03/03 03:17:24;;;;;;;52.72;28.13;;;-0.20;99.90;;;;;;5061969;28;20044;-91
2022/03/03 03:19:50;;;;;;;51.42;26.73;;;-0.10;99.90;;;;;;5059420;28;20655;-90
2022/03/03 03:22:15;;;;;;;56.15;29.75;;;-0.20;99.90;;;;;;5067389;28;20040;-90
2022/03/03 03:24:41;;;;;;;55.15;29.75;;;-0.20;99.90;;;;;;5071718;28;20037;-91
2022/03/03 03:27:07;;;;;;;59.40;31.00;;;-0.20;99.90;;;;;;5075463;28;20048;-91
2022/03/03 03:29:32;;;;;;;51.45;28.25;;;-0.20;99.90;;;;;;5055656;28;20044;-91
2022/03/03 03:31:58;;;;;;;52.72;27.13;;;-0.20;99.90;;;;;;5077130;28;20033;-90
2022/03/03 03:34:24;;;;;;;54.17;28.40;;;-0.20;99.90;;;;;;5081169;28;20040;-91
2022/03/03 03:36:50;;;;;;;53.78;28.23;;;-0.20;99.90;;;;;;5055403;28;20507;-90
2022/03/03 03:39:16;;;;;;;59.75;28.83;;;-0.20;99.90;;;;;;5060882;28;20040;-91
2022/03/03 03:41:43;;;;;;;53.78;27.95;;;-0.20;99.90;;;;;;5060738;28;20217;-91
2022/03/03 03:44:09;;;;;;;55.28;28.52;;;-0.20;99.90;;;;;;5055506;28;20037;-90
2022/03/03 03:46:35;;;;;;;57.67;29.90;;;-0.20;99.90;;;;;;5059212;28;20032;-90
2022/03/03 03:49:01;;;;;;;55.92;27.77;;;-0.20;99.90;;;;;;5081818;28;21016;-90
2022/03/03 03:51:27;;;;;;;50.90;29.17;;;-0.20;99.90;;;;;;5063914;28;20185;-90
2022/03/03 03:53:52;;;;;;;51.38;27.35;;;-0.20;99.90;;;;;;5052499;28;20404;-91
2022/03/03 03:56:18;;;;;;;54.90;29.27;;;-0.10;99.90;;;;;;5077263;28;20500;-90
2022/03/03 03:58:43;;;;;;;56.63;30.67;;;-0.20;99.90;;;;;;5061371;28;20036;-91
2022/03/03 04:01:09;;;;;;;57.38;29.92;;;-0.20;99.90;;;;;;5059224;28;20311;-91
2022/03/03 04:03:35;;;;;;;53.78;28.13;;;-0.10;99.90;;;;;;5057066;28;20055;-91
2022/03/03 04:06:00;;;;;;;55.95;28.65;;;-0.10;99.90;;;;;;5070922;28;20682;-91
2022/03/03 04:08:26;;;;;;;54.10;30.17;;;-0.10;99.90;;;;;;5060836;28;20033;-92
2022/03/03 04:10:52;;;;;;;52.42;28.35;;;0.00;99.90;;;;;;5058708;28;20048;-90
2022/03/03 04:13:17;;;;;;;56.60;27.73;;;0.00;99.90;;;;;;5087476;28;20076;-90
2022/03/03 04:15:43;;;;;;;51.70;29.35;;;0.10;99.90;;;;;;5084191;28;20107;-92
2022/03/03 04:18:10;;;;;;;54.30;30.88;;;0.10;99.90;;;;;;5064890;28;20418;-91
2022/03/03 04:20:36;;;;;;;54.45;29.80;;;0.10;99.90;;;;;;5080366;28;20105;-91
2022/03/03 04:23:02;;;;;;;50.80;28.58;;;0.20;99.90;;;;;;5076926;28;20040;-92
2022/03/03 04:25:29;;;;;;;50.67;28.58;;;0.20;99.90;;;;;;5079132;28;20055;-91
2022/03/03 04:27:54;;;;;;;56.05;30.10;;;0.20;99.90;;;;;;5063794;28;20049;-91
2022/03/03 04:30:20;;;;;;;57.50;30.30;;;0.30;99.90;;;;;;5077841;28;20051;-91
2022/03/03 04:32:45;;;;;;;53.30;29.45;;;0.30;99.90;;;;;;5083043;28;20476;-91
2022/03/03 04:35:11;;;;;;;52.63;31.13;;;0.30;99.90;;;;;;5059553;28;20044;-89
2022/03/03 04:37:38;;;;;;;55.72;29.90;;;0.30;99.90;;;;;;5079397;28;20401;-92
2022/03/03 04:40:05;;;;;;;54.42;28.52;;;0.30;99.90;;;;;;5064553;28;20059;-91
2022/03/03 04:42:31;;;;;;;51.03;27.65;;;0.30;99.90;;;;;;5076835;28;20054;-91
2022/03/03 04:44:56;;;;;;;50.10;26.83;;;0.30;99.90;;;;;;5060440;28;20052;-91
2022/03/03 04:47:22;;;;;;;49.30;29.35;;;0.30;99.90;;;;;;5065258;28;20325;-92
2022/03/03 04:49:48;;;;;;;45.90;26.80;;;0.20;99.90;;;;;;5083896;28;20043;-91
2022/03/03 04:52:14;;;;;;;47.33;26.33;;;0.30;99.90;;;;;;5086905;28;20045;-92
2022/03/03 04:54:39;;;;;;;52.72;28.42;;;0.30;99.90;;;;;;5075397;28;20051;-91
2022/03/03 04:57:05;;;;;;;52.05;27.92;;;0.20;99.90;;;;;;5094379;28;20052;-92
2022/03/03 04:59:31;;;;;;;53.83;27.45;;;0.20;99.90;;;;;;5080138;28;20052;-92
2022/03/03 05:01:57;;;;;;;47.78;27.23;;;0.20;99.90;;;;;;5092126;28;20044;-90
2022/03/03 05:04:22;;;;;;;45.72;26.58;;;0.20;99.90;;;;;;5066650;28;20067;-91
2022/03/03 05:06:49;;;;;;;46.53;24.15;;;0.20;99.90;;;;;;5085639;28;20067;-91
2022/03/03 05:09:15;;;;;;;44.70;24.92;;;0.10;99.90;;;;;;5068426;28;20048;-91
2022/03/03 05:11:41;;;;;;;44.50;24.27;;;0.10;99.90;;;;;;5080828;28;20430;-91
2022/03/03 05:14:07;;;;;;;46.95;25.42;;;0.10;99.90;;;;;;5063288;28;20043;-91
2022/03/03 05:16:33;;;;;;;44.25;25.33;;;0.10;99.90;;;;;;5067770;28;20072;-92
2022/03/03 05:18:58;;;;;;;40.67;24.90;;;0.10;99.90;;;;;;5059189;28;20500;-92
2022/03/03 05:21:24;;;;;;;41.53;24.02;;;0.00;99.90;;;;;;5079494;28;20055;-91
2022/03/03 05:23:50;;;;;;;44.08;24.08;;;0.00;99.90;;;;;;5062617;28;20037;-91
2022/03/03 05:26:15;;;;;;;41.15;23.52;;;0.00;99.90;;;;;;5082089;28;20465;-90
2022/03/03 05:28:42;;;;;;;42.78;24.35;;;0.00;99.90;;;;;;5065704;28;20048;-91
2022/03/03 05:31:08;;;;;;;43.28;23.48;;;-0.10;99.90;;;;;;5083083;28;20405;-90
2022/03/03 05:33:34;;;;;;;43.53;24.80;;;-0.10;99.90;;;;;;5066512;28;20074;-90
2022/03/03 05:36:03;;;;;;;39.30;22.73;;;-0.10;99.90;;;;;;5080483;28;20190;-91
2022/03/03 05:38:31;;;;;;;39.13;23.23;;;0.00;99.90;;;;;;5080607;28;20040;-91
2022/03/03 05:40:58;;;;;;;39.70;24.08;;;-0.10;99.90;;;;;;5066042;28;20165;-91
2022/03/03 05:43:25;;;;;;;40.70;23.55;;;-0.10;99.90;;;;;;5064447;28;20055;-91
2022/03/03 05:45:53;;;;;;;38.83;23.38;;;-0.10;99.90;;;;;;5056205;28;20052;-91
2022/03/03 05:48:19;;;;;;;42.08;23.08;;;-0.10;99.90;;;;;;5061995;28;20115;-92
2022/03/03 05:50:46;;;;;;;37.22;21.38;;;-0.20;99.90;;;;;;5060993;28;20052;-91
2022/03/03 05:53:12;;;;;;;42.55;22.27;;;-0.20;99.90;;;;;;5065312;28;20400;-91
2022/03/03 05:55:59;;;;;;;47.75;23.23;;;-0.20;99.90;;;;;;5064346;28;20075;-90
2022/03/03 05:58:45;;;;;;;41.38;22.42;;;-0.30;99.90;;;;;;5063311;28;20055;-89
2022/03/03 06:01:13;;;;;;;39.03;21.20;;;-0.30;99.90;;;;;;5062002;28;20056;-90
2022/03/03 06:03:39;;;;;;;37.28;22.08;;;-0.30;99.90;;;;;;5060818;28;20085;-92
2022/03/03 06:06:23;;;;;;;36.63;21.42;;;-0.40;99.90;;;;;;5065148;28;20096;-91
2022/03/03 06:09:01;;;;;;;39.50;23.98;;;-0.40;99.90;;;;;;5058747;28;20093;-90
2022/03/03 06:11:27;;;;;;;40.83;23.77;;;-0.40;99.90;;;;;;5078695;28;20048;-91
2022/03/03 06:14:03;;;;;;;44.03;26.20;;;-0.40;99.90;;;;;;5077546;28;20347;-91
2022/03/03 06:16:31;;;;;;;39.40;24.20;;;-0.40;99.90;;;;;;5062279;28;20045;-92
2022/03/03 06:18:58;;;;;;;41.00;23.45;;;-0.40;99.90;;;;;;5078626;28;20059;-92
2022/03/03 06:21:24;;;;;;;38.55;21.70;;;-0.50;99.90;;;;;;5063487;28;20055;-92
2022/03/03 06:23:50;;;;;;;35.67;22.33;;;-0.40;99.90;;;;;;5060035;28;20044;-91
2022/03/03 06:26:18;;;;;;;36.55;21.88;;;-0.50;99.90;;;;;;5064402;28;20043;-91
2022/03/03 06:28:44;;;;;;;36.30;21.17;;;-0.50;99.90;;;;;;5065761;28;20136;-93
2022/03/03 06:31:10;;;;;;;38.83;21.60;;;-0.50;99.90;;;;;;5063734;28;20044;-94
2022/03/03 06:33:36;;;;;;;36.63;22.02;;;-0.50;99.90;;;;;;5073041;28;20037;-91
2022/03/03 06:36:02;;;;;;;38.15;22.60;;;-0.50;99.90;;;;;;5083471;28;20055;-91
2022/03/03 06:38:27;;;;;;;38.63;23.70;;;-0.40;99.90;;;;;;5061997;28;20040;-92
2022/03/03 06:40:55;;;;;;;42.40;22.92;;;-0.40;99.90;;;;;;5061081;28;20052;-93
2022/03/03 06:43:21;;;;;;;40.38;23.38;;;-0.40;99.90;;;;;;5062718;28;20101;-91
2022/03/03 06:45:47;;;;;;;41.65;23.38;;;-0.40;99.90;;;;;;5077943;28;20037;-92
2022/03/03 06:48:13;;;;;;;36.47;21.35;;;-0.30;99.90;;;;;;5077365;28;20048;-92
2022/03/03 06:50:40;;;;;;;40.22;22.58;;;-0.40;99.90;;;;;;5058910;28;20078;-92
2022/03/03 06:53:09;;;;;;;37.35;22.38;;;-0.30;99.90;;;;;;5057077;28;20040;-92
2022/03/03 06:55:38;;;;;;;43.00;23.27;;;-0.30;99.90;;;;;;5078075;28;20496;-93
2022/03/03 06:58:03;;;;;;;40.78;23.80;;;-0.20;99.90;;;;;;5061952;28;20047;-91
2022/03/03 07:00:33;;;;;;;38.58;22.35;;;-0.20;99.90;;;;;;5058376;28;20069;-92
2022/03/03 07:03:01;;;;;;;39.92;22.65;;;-0.10;99.90;;;;;;5056273;28;20049;-91
2022/03/03 07:05:28;;;;;;;37.00;22.55;;;-0.10;99.90;;;;;;5080091;28;20067;-90
2022/03/03 07:07:54;;;;;;;40.90;22.02;;;0.00;99.90;;;;;;5060849;28;20060;-93
2022/03/03 07:10:25;;;;;;;36.40;20.40;;;0.00;99.90;;;;;;5060659;28;20044;-96
2022/03/03 07:12:53;;;;;;;40.40;22.65;;;0.10;99.90;;;;;;5072268;28;20045;-91
2022/03/03 07:15:20;;;;;;;41.67;23.55;;;0.10;99.90;;;;;;5057173;28;20716;-91
2022/03/03 07:18:16;;;;;;;37.00;22.50;;;0.10;99.90;;;;;;5076920;28;20090;-92
2022/03/03 07:20:53;;;;;;;38.58;22.02;;;0.20;99.90;;;;;;5074058;28;20067;-90
2022/03/03 07:23:30;;;;;;;38.30;22.23;;;0.30;99.90;;;;;;5073294;28;20040;-90
2022/03/03 07:25:59;;;;;;;38.80;20.73;;;0.30;99.90;;;;;;5087011;28;20081;-95
2022/03/03 07:28:27;;;;;;;36.50;23.30;;;0.40;99.90;;;;;;5066526;28;20044;-96
2022/03/03 07:30:54;;;;;;;41.13;21.55;;;0.40;99.90;;;;;;5069784;28;20053;-96
2022/03/03 07:33:36;;;;;;;37.35;21.35;;;0.50;99.90;;;;;;5067387;28;20044;-96
2022/03/03 07:36:03;;;;;;;38.17;22.08;;;0.50;99.90;;;;;;5071990;28;20059;-90
2022/03/03 07:38:35;;;;;;;36.08;22.73;;;0.60;99.90;;;;;;5078493;28;20474;-96
2022/03/03 07:41:02;;;;;;;38.63;22.33;;;0.70;99.90;;;;;;5084489;28;20041;-96
2022/03/03 07:43:29;;;;;;;35.40;22.00;;;0.80;99.90;;;;;;5198531;23;20036;-96
2022/03/03 07:45:56;;;;;;;37.00;22.85;;;0.90;99.90;;;;;;4990373;28;20043;-96
2022/03/03 07:48:25;;;;;;;37.78;22.88;;;0.90;99.90;;;;;;4997931;28;20042;-96
2022/03/03 07:53:29;;;;;;;39.17;22.90;;;1.10;99.90;;;;;;5168583;22;20071;-96
2022/03/03 07:56:02;;;;;;;35.67;20.85;;;1.10;99.90;;;;;;5066096;28;20088;-96
2022/03/03 07:58:31;;;;;;;36.67;22.13;;;1.20;99.90;;;;;;5043941;28;20064;-96
2022/03/03 08:00:59;;;;;;;34.67;20.65;;;1.30;99.90;;;;;;5049513;28;20053;-96
2022/03/03 08:03:25;;;;;;;34.33;21.52;;;1.30;99.90;;;;;;5067471;28;20051;-96
2022/03/03 08:05:57;;;;;;;35.38;20.98;;;1.40;99.90;;;;;;5049111;28;20091;-94
2022/03/03 08:08:28;;;;;;;34.22;20.88;;;1.40;99.90;;;;;;5062092;28;20131;-95
2022/03/03 08:11:02;;;;;;;32.70;20.67;;;1.60;99.90;;;;;;5042120;28;20056;-93
2022/03/03 08:13:35;;;;;;;33.63;21.88;;;1.70;99.90;;;;;;5037919;28;20048;-96
2022/03/03 08:16:01;;;;;;;34.20;20.80;;;1.70;99.90;;;;;;5059914;28;20079;-95
2022/03/03 08:18:30;;;;;;;29.40;18.65;;;1.80;99.90;;;;;;5049808;28;20037;-96
2022/03/03 08:20:57;;;;;;;32.65;20.60;;;1.90;99.90;;;;;;5036069;28;20045;-95
2022/03/03 08:23:25;;;;;;;30.55;19.58;;;1.90;99.90;;;;;;5034787;28;20055;-93
2022/03/03 08:25:53;;;;;;;32.70;20.33;;;2.10;99.90;;;;;;5057359;28;20052;-94
2022/03/03 08:28:32;;;;;;;31.27;20.00;;;2.10;99.90;;;;;;5050360;28;20048;-93
2022/03/03 08:31:06;;;;;;;30.17;19.40;;;2.20;99.90;;;;;;5040415;28;20139;-94
2022/03/03 08:33:49;;;;;;;29.08;18.73;;;2.20;99.90;;;;;;5040953;28;20416;-94
2022/03/03 08:36:25;;;;;;;30.52;19.95;;;2.30;99.90;;;;;;5042454;28;20075;-91
2022/03/03 08:38:52;;;;;;;31.70;20.35;;;2.40;99.90;;;;;;5052735;28;20059;-93
2022/03/03 08:41:22;;;;;;;33.28;19.73;;;2.50;99.90;;;;;;5057596;28;20035;-93
2022/03/03 08:43:51;;;;;;;31.13;19.25;;;2.60;99.90;;;;;;5034677;28;20048;-92
2022/03/03 08:46:24;;;;;;;29.60;19.25;;;2.60;99.90;;;;;;5060484;28;20034;-92
2022/03/03 08:48:51;;;;;;;29.52;19.55;;;2.80;99.90;;;;;;5055212;28;20382;-93
2022/03/03 08:51:19;;;;;;;30.55;18.80;;;2.80;99.90;;;;;;5035808;28;20124;-91
2022/03/03 08:53:46;;;;;;;32.35;19.98;;;2.90;99.90;;;;;;5035856;28;20459;-91
2022/03/03 08:56:12;;;;;;;28.92;20.10;;;3.00;99.90;;;;;;5037470;28;20469;-90
2022/03/03 08:58:38;;;;;;;31.58;19.90;;;3.00;99.90;;;;;;5054259;28;20518;-91
2022/03/03 09:01:03;;;;;;;28.05;19.27;;;3.20;99.90;;;;;;5040474;28;20072;-91
2022/03/03 09:03:29;;;;;;;29.33;19.20;;;3.30;99.90;;;;;;5044933;28;20127;-91
2022/03/03 09:05:56;;;;;;;31.88;19.67;;;3.30;99.90;;;;;;5049906;28;20721;-90
2022/03/03 09:08:23;;;;;;;29.23;20.33;;;3.40;99.90;;;;;;5048085;28;20043;-91
2022/03/03 09:10:49;;;;;;;29.73;19.73;;;3.50;99.90;;;;;;5051037;28;20092;-91
2022/03/03 09:13:14;;;;;;;29.95;19.60;;;3.60;99.90;;;;;;5076448;28;20047;-92
2022/03/03 09:15:40;;;;;;;29.17;18.38;;;3.70;99.90;;;;;;5048788;28;20508;-91
2022/03/03 09:18:06;;;;;;;29.42;20.02;;;3.80;99.90;;;;;;5044598;28;20165;-91
2022/03/03 09:20:33;;;;;;;29.40;19.67;;;4.00;99.90;;;;;;5057277;28;20048;-91
2022/03/03 09:22:59;;;;;;;29.20;21.10;;;4.00;99.90;;;;;;5050582;28;20040;-93
2022/03/03 09:25:25;;;;;;;30.10;19.70;;;4.10;99.90;;;;;;5045023;28;20049;-92
2022/03/03 09:27:52;;;;;;;27.92;20.33;;;4.20;99.90;;;;;;5057254;28;20051;-92
2022/03/03 09:30:21;;;;;;;28.70;19.65;;;4.40;99.90;;;;;;5038339;28;20413;-92
2022/03/03 09:32:47;;;;;;;30.30;20.60;;;4.50;99.90;;;;;;5034364;28;20063;-92
2022/03/03 09:35:13;;;;;;;29.63;21.27;;;4.60;99.90;;;;;;5036443;28;20045;-93
2022/03/03 09:37:39;;;;;;;32.28;20.02;;;4.70;99.90;;;;;;5042350;28;20130;-93
2022/03/03 09:40:06;;;;;;;28.13;19.27;;;4.80;99.90;;;;;;5037866;28;20053;-92
2022/03/03 09:42:36;;;;;;;27.48;19.38;;;4.90;99.90;;;;;;5055114;28;20037;-93
2022/03/03 09:45:05;;;;;;;29.80;20.48;;;5.00;99.90;;;;;;5034423;28;20041;-94
2022/03/03 09:47:33;;;;;;;32.53;21.90;;;5.00;99.90;;;;;;5058064;28;20465;-91
2022/03/03 09:49:59;;;;;;;28.77;21.40;;;5.30;99.90;;;;;;5030443;28;20048;-93
2022/03/03 09:52:25;;;;;;;29.25;20.55;;;5.30;99.90;;;;;;5038159;28;20056;-92
2022/03/03 09:54:54;;;;;;;28.40;20.08;;;5.50;99.90;;;;;;5057387;28;20052;-93
2022/03/03 09:57:20;;;;;;;29.50;20.38;;;5.60;99.90;;;;;;5043398;28;20136;-94
2022/03/03 09:59:46;;;;;;;28.13;21.30;;;5.70;99.90;;;;;;5033425;28;20041;-94
2022/03/03 10:02:12;;;;;;;27.35;20.60;;;5.90;99.90;;;;;;5034712;28;20567;-93
2022/03/03 10:04:38;;;;;;;29.02;20.95;;;5.90;99.90;;;;;;5041085;28;20051;-93
2022/03/03 10:07:08;;;;;;;26.40;19.08;;;5.90;99.90;;;;;;5053568;28;20089;-93
2022/03/03 10:09:59;;;;;;;25.90;19.58;;;6.00;99.90;;;;;;5035658;28;20039;-92
2022/03/03 10:12:22;;;;;;;27.00;20.08;;;6.10;99.90;;;;;;5054702;28;20110;-96
2022/03/03 10:14:49;;;;;;;26.55;21.13;;;6.20;99.90;;;;;;5037127;28;20363;-96
2022/03/03 10:17:15;;;;;;;25.83;18.83;;;6.20;99.90;;;;;;5042488;28;20041;-93
2022/03/03 10:19:55;;;;;;;26.85;20.52;;;6.30;99.90;;;;;;5014576;28;20045;-96
2022/03/03 10:22:44;;;;;;;25.70;20.38;;;6.30;99.90;;;;;;5041796;28;20041;-95
2022/03/03 10:25:13;;;;;;;24.48;19.48;;;6.40;99.90;;;;;;5069400;28;20045;-96
2022/03/03 10:27:45;;;;;;;24.05;19.63;;;6.40;99.90;;;;;;5054219;28;20049;-94
2022/03/03 10:30:11;;;;;;;27.25;20.27;;;6.40;99.90;;;;;;5047343;28;20123;-96
2022/03/03 10:32:38;;;;;;;24.30;18.80;;;6.60;99.90;;;;;;5044364;28;20072;-95
2022/03/03 10:35:19;;;;;;;24.50;20.00;;;6.70;99.90;;;;;;5056889;28;20508;-96
2022/03/03 10:37:46;;;;;;;23.40;18.80;;;6.80;99.90;;;;;;5027215;28;20133;-96
2022/03/03 10:40:14;;;;;;;23.75;18.80;;;6.80;99.90;;;;;;5035255;28;20095;-95
2022/03/03 10:42:54;;;;;;;24.40;18.67;;;6.90;99.90;;;;;;5039551;28;20147;-96
2022/03/03 10:45:21;;;;;;;25.33;18.52;;;7.00;99.90;;;;;;5064965;28;20443;-94
2022/03/03 10:47:59;;;;;;;22.10;18.67;;;7.10;99.90;;;;;;5035723;28;20037;-94
2022/03/03 10:50:24;;;;;;;24.75;19.40;;;7.20;99.90;;;;;;5037095;28;20048;-96
2022/03/03 10:52:50;;;;;;;21.08;18.42;;;7.30;99.90;;;;;;5036137;28;20135;-94
2022/03/03 10:55:17;;;;;;;21.48;17.58;;;7.40;99.80;;;;;;5057514;28;20106;-94
2022/03/03 10:57:59;;;;;;;23.15;16.90;;;7.50;97.60;;;;;;5062245;22;20064;-95
2022/03/03 11:00:30;;;;;;;22.55;18.05;;;7.50;96.60;;;;;;5040428;28;20041;-95
2022/03/03 11:02:58;;;;;;;21.63;16.67;;;7.70;95.30;;;;;;5016911;28;20045;-94
2022/03/03 11:05:26;;;;;;;22.63;18.20;;;7.60;94.70;;;;;;5038616;28;20100;-95
2022/03/03 11:07:53;;;;;;;22.17;18.25;;;7.80;94.00;;;;;;5028524;28;20090;-93
2022/03/03 11:10:25;;;;;;;22.48;16.83;;;7.80;93.40;;;;;;5031749;28;20161;-96
2022/03/03 11:12:51;;;;;;;20.15;15.85;;;7.90;77.50;;;;;;5014858;28;20048;-95
2022/03/03 11:15:20;;;;;;;20.00;15.60;;;8.00;88.50;;;;;;5020940;28;20071;-96
2022/03/03 11:17:48;;;;;;;21.55;18.20;;;8.10;82.20;;;;;;5017087;28;20474;-93
2022/03/03 11:20:16;;;;;;;20.48;17.17;;;8.20;87.00;;;;;;5081128;23;20049;-95
2022/03/03 11:22:43;;;;;;;21.55;18.40;;;8.20;88.70;;;;;;5028934;28;20510;-95
2022/03/03 11:25:14;;;;;;;21.13;17.42;;;8.30;80.10;;;;;;5012794;28;20068;-94
2022/03/03 11:27:45;;;;;;;21.55;17.30;;;8.40;81.80;;;;;;5024189;28;20068;-95
2022/03/03 11:30:19;;;;;;;20.08;16.67;;;8.50;75.80;;;;;;5017040;28;20037;-95
2022/03/03 11:33:05;;;;;;;23.13;17.17;;;8.50;76.80;;;;;;5028929;28;20042;-95
2022/03/03 11:35:46;;;;;;;20.10;16.63;;;8.50;77.70;;;;;;5009896;28;20079;-94
2022/03/03 11:38:12;;;;;;;21.08;15.90;;;8.60;76.70;;;;;;5030991;28;20045;-93
2022/03/03 11:41:00;;;;;;;18.45;15.02;;;8.70;77.50;;;;;;5015423;28;20095;-96
2022/03/03 11:43:28;;;;;;;20.92;17.90;;;8.70;71.20;;;;;;5033168;28;20046;-95
2022/03/03 11:45:56;;;;;;;20.67;17.08;;;8.80;73.80;;;;;;5009249;28;20213;-96
2022/03/03 11:48:23;;;;;;;20.27;16.27;;;8.90;75.20;;;;;;5011910;28;20120;-95
2022/03/03 11:50:51;;;;;;;18.60;16.60;;;8.90;70.20;;;;;;5021066;28;20176;-95
2022/03/03 11:53:19;;;;;;;18.35;15.95;;;9.00;71.30;;;;;;5036141;28;20053;-94
2022/03/03 11:55:49;;;;;;;19.15;15.82;;;9.00;73.10;;;;;;5019393;28;20099;-94
2022/03/03 11:58:32;;;;;;;18.90;16.10;;;9.00;69.60;;;;;;5026828;28;20580;-94
2022/03/03 12:00:57;;;;;;;19.15;16.13;;;9.00;66.80;;;;;;5030788;28;20065;-96
2022/03/03 12:03:24;;;;;;;18.73;15.15;;;9.00;68.60;;;;;;5047573;28;20049;-95
2022/03/03 12:06:10;;;;;;;17.83;14.70;;;9.10;66.70;;;;;;5042446;28;20044;-96
2022/03/03 12:08:42;;;;;;;17.52;14.88;;;9.10;67.10;;;;;;5032123;28;20053;-96
2022/03/03 12:11:14;;;;;;;16.95;13.88;;;9.10;66.40;;;;;;5043163;28;20041;-96
2022/03/03 12:13:39;;;;;;;;;;;9.20;66.80;;;;;;5155300;23;20117;-96
2022/03/03 12:16:18;;;;;;;16.55;13.82;;;9.20;66.50;;;;;;5022078;28;19929;-94
2022/03/03 12:18:49;;;;;;;17.38;14.63;;;9.30;68.90;;;;;;4998599;28;20026;-92
2022/03/03 12:21:36;;;;;;;17.23;14.93;;;9.30;67.90;;;;;;5025779;28;20064;-91
2022/03/03 12:24:14;;;;;;;19.02;15.55;;;9.40;64.40;;;;;;4998917;28;20068;-93
2022/03/03 12:26:55;;;;;;;17.63;14.73;;;9.50;65.60;;;;;;4995972;28;20076;-94
2022/03/03 12:29:38;;;;;;;16.05;13.63;;;9.50;63.50;;;;;;5019337;28;20414;-95
2022/03/03 12:32:42;;;;;;;15.98;14.27;;;9.50;61.90;;;;;;5011203;28;20136;-92
2022/03/03 12:35:29;;;;;;;17.08;14.55;;;9.50;61.90;;;;;;4993464;28;20425;-89
2022/03/03 12:37:59;;;;;;;17.33;15.07;;;9.60;65.40;;;;;;5002272;28;20084;-90
2022/03/03 12:40:28;;;;;;;16.70;14.23;;;9.70;65.50;;;;;;5007128;28;20064;-95
2022/03/03 12:42:54;;;;;;;17.10;14.35;;;9.80;65.10;;;;;;5022998;28;20102;-93
2022/03/03 12:45:21;;;;;;;17.65;14.55;;;9.80;63.90;;;;;;4997918;28;20046;-95